Time;durP1;ratioP1;P1;durP2;ratioP2;P2;SDS_P1;SDS_P2;PMS_P1;PMS_P2;Temp;Humidity;BMP_temperature;BMP_pressure;BME280_temperature;BME280_humidity;BME280_pressure;Samples;Min_cycle;Max_cycle;Signal;HPM_P1;HPM_P2
2023/09/25 00:00:47;;;;;;;0.10;0.10;;;;;;;21.40;78.09;101366.16;5034595;28;20047;-93
2023/09/25 00:03:12;;;;;;;0.10;0.10;;;;;;;21.29;77.55;101359.16;5050831;28;20518;-92
2023/09/25 00:05:39;;;;;;;0.20;0.20;;;;;;;21.26;78.24;101377.84;5033809;28;20487;-91
2023/09/25 00:08:05;;;;;;;0.10;0.10;;;;;;;21.22;78.38;101381.63;5034229;28;20494;-91
2023/09/25 00:10:31;;;;;;;0.20;0.20;;;;;;;21.17;78.62;101365.41;5050797;28;20032;-91
2023/09/25 00:12:57;;;;;;;0.20;0.20;;;;;;;21.02;79.22;101356.09;5034482;28;20088;-91
2023/09/25 00:15:23;;;;;;;0.10;0.10;;;;;;;21.03;79.30;101355.16;5034272;28;20033;-92
2023/09/25 00:17:49;;;;;;;0.10;0.10;;;;;;;21.15;78.71;101372.59;5034313;28;20060;-91
2023/09/25 00:20:15;;;;;;;0.10;0.10;;;;;;;20.98;78.56;101354.69;5017312;28;20043;-91
2023/09/25 00:22:40;;;;;;;0.20;0.20;;;;;;;21.14;77.90;101371.75;5051434;28;20028;-92
2023/09/25 00:25:06;;;;;;;0.20;0.20;;;;;;;21.04;78.54;101359.44;5033688;28;20056;-92
2023/09/25 00:27:32;;;;;;;0.20;0.20;;;;;;;20.97;78.99;101355.66;5034061;28;20021;-91
2023/09/25 00:29:58;;;;;;;0.20;0.20;;;;;;;20.95;78.55;101365.47;5034026;28;20033;-91
2023/09/25 00:32:23;;;;;;;0.10;0.10;;;;;;;20.99;78.88;101387.94;5016990;28;20025;-92
2023/09/25 00:34:49;;;;;;;0.20;0.20;;;;;;;20.97;79.92;101384.59;5033514;28;20029;-91
2023/09/25 00:37:14;;;;;;;0.10;0.10;;;;;;;20.95;78.72;101386.53;5017503;28;20037;-92
2023/09/25 00:39:42;;;;;;;0.10;0.10;;;;;;;20.96;78.65;101367.97;5034050;28;20091;-92
2023/09/25 00:42:08;;;;;;;0.10;0.10;;;;;;;21.02;79.21;101392.94;5017542;28;20116;-90
2023/09/25 00:44:33;;;;;;;0.20;0.20;;;;;;;20.98;78.62;101391.53;5033867;28;20079;-92
2023/09/25 00:46:59;;;;;;;0.10;0.10;;;;;;;20.97;79.56;101381.97;5033733;28;20498;-90
2023/09/25 00:49:25;;;;;;;0.10;0.10;;;;;;;20.96;79.51;101389.03;5049959;28;20049;-90
2023/09/25 00:51:51;;;;;;;0.20;0.20;;;;;;;21.03;79.83;101403.34;5033674;28;20025;-91
2023/09/25 00:54:18;;;;;;;0.10;0.10;;;;;;;20.99;79.87;101391.41;5033851;28;20044;-91
2023/09/25 00:56:45;;;;;;;0.10;0.10;;;;;;;20.95;79.53;101387.34;5034031;28;20035;-91
2023/09/25 00:59:10;;;;;;;0.20;0.20;;;;;;;21.07;78.69;101388.16;5033911;28;20047;-91
2023/09/25 01:01:36;;;;;;;0.17;0.17;;;;;;;21.10;79.06;101385.25;5033843;28;20032;-93
2023/09/25 01:04:02;;;;;;;0.10;0.10;;;;;;;20.99;79.74;101366.88;5033354;28;20024;-92
2023/09/25 01:06:28;;;;;;;0.10;0.10;;;;;;;21.05;79.96;101383.03;5033523;28;20431;-89
2023/09/25 01:08:53;;;;;;;0.10;0.10;;;;;;;21.09;79.50;101383.59;5017410;28;20036;-92
2023/09/25 01:11:19;;;;;;;0.10;0.10;;;;;;;21.14;78.65;101381.44;5017191;28;20090;-93
2023/09/25 01:13:44;;;;;;;0.10;0.10;;;;;;;21.11;78.93;101382.50;5017034;28;20033;-92
2023/09/25 01:16:10;;;;;;;0.10;0.10;;;;;;;20.95;78.46;101370.75;5017025;28;20080;-91
2023/09/25 01:18:35;;;;;;;0.20;0.20;;;;;;;21.06;78.37;101386.50;5016781;28;20029;-90
2023/09/25 01:21:02;;;;;;;0.10;0.10;;;;;;;21.12;78.66;101409.66;5016946;28;20025;-90
2023/09/25 01:23:28;;;;;;;0.20;0.20;;;;;;;21.07;79.14;101417.94;5033568;28;20098;-92
2023/09/25 01:25:53;;;;;;;0.10;0.10;;;;;;;21.10;79.15;101425.56;5033521;28;20024;-91
2023/09/25 01:28:19;;;;;;;0.20;0.20;;;;;;;21.05;78.83;101424.28;5033384;28;20475;-92
2023/09/25 01:30:44;;;;;;;0.10;0.10;;;;;;;21.07;79.07;101415.28;5033400;28;20098;-91
2023/09/25 01:33:10;;;;;;;0.10;0.10;;;;;;;21.12;79.55;101414.91;5016534;28;20033;-91
2023/09/25 01:35:35;;;;;;;0.20;0.20;;;;;;;21.17;79.18;101418.03;5052209;28;20590;-91
2023/09/25 01:38:03;;;;;;;0.10;0.10;;;;;;;21.15;78.86;101415.53;5020708;28;20461;-91
2023/09/25 01:40:29;;;;;;;0.20;0.20;;;;;;;21.19;79.02;101416.09;5037252;28;20032;-91
2023/09/25 01:42:55;;;;;;;0.10;0.10;;;;;;;21.22;78.53;101415.84;5020539;28;20033;-92
2023/09/25 01:45:20;;;;;;;0.13;0.13;;;;;;;21.15;78.87;101404.16;5020462;28;20112;-92
2023/09/25 01:47:50;;;;;;;0.20;0.20;;;;;;;21.14;78.84;101405.97;5036590;28;20479;-91
2023/09/25 01:50:17;;;;;;;0.10;0.10;;;;;;;21.12;79.31;101410.47;5020760;28;20552;-93
2023/09/25 01:52:43;;;;;;;0.10;0.10;;;;;;;21.14;79.79;101416.47;5036902;28;20029;-91
2023/09/25 01:55:08;;;;;;;0.10;0.10;;;;;;;21.08;79.02;101414.34;5036770;28;20491;-92
2023/09/25 01:57:34;;;;;;;0.10;0.10;;;;;;;20.92;79.18;101412.09;5020337;28;20028;-92
2023/09/25 02:00:00;;;;;;;0.20;0.20;;;;;;;20.92;79.14;101414.72;5036655;28;20426;-92
2023/09/25 02:02:25;;;;;;;0.10;0.10;;;;;;;21.07;78.91;101422.34;5019795;28;20029;-92
2023/09/25 02:04:51;;;;;;;0.10;0.10;;;;;;;21.06;78.26;101421.53;5036732;28;20478;-91
2023/09/25 02:07:18;;;;;;;0.10;0.10;;;;;;;21.00;78.32;101418.53;5036215;28;20057;-92
2023/09/25 02:09:45;;;;;;;0.10;0.10;;;;;;;20.99;78.00;101420.34;5020102;28;20036;-93
2023/09/25 02:12:10;;;;;;;0.20;0.20;;;;;;;21.00;78.59;101421.16;5036530;28;20031;-91
2023/09/25 02:14:36;;;;;;;0.13;0.13;;;;;;;21.08;78.03;101439.81;5052906;28;20029;-91
2023/09/25 02:17:02;;;;;;;0.20;0.20;;;;;;;21.04;78.68;101438.38;5019569;28;20037;-93
2023/09/25 02:19:28;;;;;;;0.20;0.20;;;;;;;21.00;78.76;101437.78;5053107;28;20095;-92
2023/09/25 02:21:54;;;;;;;0.10;0.10;;;;;;;21.00;79.23;101436.94;5053030;28;20486;-91
2023/09/25 02:24:20;;;;;;;0.10;0.10;;;;;;;21.02;79.36;101435.84;5036295;28;20108;-91
2023/09/25 02:26:45;;;;;;;0.10;0.10;;;;;;;21.00;78.84;101444.84;5019633;28;20029;-92
2023/09/25 02:29:11;;;;;;;0.10;0.10;;;;;;;20.97;78.62;101448.56;5036003;28;20028;-90
2023/09/25 02:31:36;;;;;;;0.10;0.10;;;;;;;21.00;78.41;101443.03;5036116;28;20533;-91
2023/09/25 02:34:02;;;;;;;0.10;0.10;;;;;;;20.79;78.60;101421.09;5035980;28;20120;-92
2023/09/25 02:36:27;;;;;;;0.10;0.10;;;;;;;20.83;79.06;101444.38;5019417;28;20036;-90
2023/09/25 02:38:53;;;;;;;0.13;0.13;;;;;;;20.81;78.86;101445.47;5035909;28;20414;-90
2023/09/25 02:41:18;;;;;;;0.10;0.10;;;;;;;20.72;77.73;101418.09;5053625;28;20021;-92
2023/09/25 02:43:44;;;;;;;0.10;0.10;;;;;;;20.88;77.37;101442.22;5019346;28;20095;-92
2023/09/25 02:46:09;;;;;;;0.10;0.10;;;;;;;20.90;75.39;101434.22;5018375;28;20032;-92
2023/09/25 02:48:35;;;;;;;0.20;0.20;;;;;;;20.89;76.90;101437.81;5051893;28;20029;-91
2023/09/25 02:51:00;;;;;;;0.10;0.10;;;;;;;20.90;76.83;101453.47;5035661;28;20056;-91
2023/09/25 02:53:26;;;;;;;0.10;0.10;;;;;;;20.91;76.93;101459.56;5019034;28;20021;-91
2023/09/25 02:55:52;;;;;;;0.10;0.10;;;;;;;20.94;74.80;101469.00;5036113;28;20040;-94
2023/09/25 02:58:17;;;;;;;0.20;0.20;;;;;;;20.98;75.65;101460.75;5019247;28;20028;-93
2023/09/25 03:00:44;;;;;;;0.10;0.10;;;;;;;20.98;76.15;101470.44;5035546;28;20434;-93
2023/09/25 03:03:10;;;;;;;0.10;0.10;;;;;;;20.90;75.32;101471.03;5019084;28;20398;-90
2023/09/25 03:05:36;;;;;;;0.20;0.20;;;;;;;20.95;74.42;101481.22;5018079;28;20040;-92
2023/09/25 03:08:02;;;;;;;0.10;0.10;;;;;;;20.95;74.46;101481.22;5034921;28;20043;-90
2023/09/25 03:10:28;;;;;;;0.20;0.20;;;;;;;20.90;73.07;101474.50;5018291;28;20094;-90
2023/09/25 03:12:53;;;;;;;0.10;0.10;;;;;;;21.03;74.33;101490.13;5018916;28;20020;-91
2023/09/25 03:15:19;;;;;;;0.10;0.10;;;;;;;21.29;72.84;101488.09;5019575;28;20029;-90
2023/09/25 03:17:44;;;;;;;0.20;0.20;;;;;;;21.50;72.35;101498.69;5035259;28;20032;-93
2023/09/25 03:20:16;;;;;;;0.10;0.10;;;;;;;21.95;70.57;101504.63;5035153;28;20032;-92
2023/09/25 03:22:42;;;;;;;0.15;0.15;;;;;;;22.20;70.04;101502.59;5021122;28;20078;-87
2023/09/25 03:25:08;;;;;;;0.10;0.10;;;;;;;22.11;69.39;101495.47;5033869;28;20095;-87
2023/09/25 03:27:33;;;;;;;0.10;0.10;;;;;;;22.28;68.62;101511.53;5034052;28;20040;-89
2023/09/25 03:29:59;;;;;;;0.10;0.10;;;;;;;22.20;69.25;101508.69;5017007;28;20032;-88
2023/09/25 03:32:24;;;;;;;0.20;0.20;;;;;;;22.15;69.74;101500.34;5017092;28;20032;-89
2023/09/25 03:34:50;;;;;;;0.10;0.10;;;;;;;22.24;66.72;101535.66;5033557;28;20061;-89
2023/09/25 03:37:16;;;;;;;0.10;0.10;;;;;;;22.21;67.78;101549.06;5033698;28;20033;-87
2023/09/25 03:39:41;;;;;;;0.20;0.20;;;;;;;22.21;67.38;101546.44;5017102;28;20060;-89
2023/09/25 03:42:06;;;;;;;0.10;0.10;;;;;;;22.06;64.95;101530.09;5033616;28;20560;-88
2023/09/25 03:44:32;;;;;;;0.10;0.10;;;;;;;22.09;65.70;101544.81;5049682;28;20036;-88
2023/09/25 03:46:57;;;;;;;0.10;0.10;;;;;;;22.18;65.47;101544.06;5033430;28;20028;-89
2023/09/25 03:49:23;;;;;;;0.10;0.10;;;;;;;22.02;65.42;101536.56;5033399;28;20029;-88
2023/09/25 03:51:48;;;;;;;0.10;0.10;;;;;;;22.05;65.73;101557.41;5033587;28;20033;-90
2023/09/25 03:54:14;;;;;;;0.10;0.10;;;;;;;21.97;65.33;101565.94;5050214;28;20499;-88
2023/09/25 03:56:39;;;;;;;0.10;0.10;;;;;;;21.94;65.96;101555.66;5033060;28;20063;-88
2023/09/25 03:59:05;;;;;;;0.13;0.13;;;;;;;21.81;65.87;101543.59;5016561;28;20032;-88
2023/09/25 04:01:31;;;;;;;0.10;0.10;;;;;;;21.84;65.70;101554.72;5016814;28;20052;-91
2023/09/25 04:03:56;;;;;;;0.20;0.20;;;;;;;21.88;65.86;101545.59;5033295;28;20033;-87
2023/09/25 04:06:22;;;;;;;0.10;0.10;;;;;;;21.85;65.84;101550.31;5014789;28;20064;-88
2023/09/25 04:08:47;;;;;;;0.47;0.20;;;;;;;21.85;66.57;101563.47;5049414;28;20071;-87
2023/09/25 04:11:14;;;;;;;0.20;0.20;;;;;;;21.78;67.35;101560.50;5032417;28;20025;-87
2023/09/25 04:13:40;;;;;;;0.20;0.20;;;;;;;21.81;66.22;101570.75;5047890;28;20606;-87
2023/09/25 04:16:06;;;;;;;0.10;0.10;;;;;;;21.71;66.80;101560.13;5030594;28;20475;-88
2023/09/25 04:18:32;;;;;;;0.10;0.10;;;;;;;21.66;66.97;101550.97;5016330;28;20040;-87
2023/09/25 04:21:02;;;;;;;0.10;0.10;;;;;;;21.86;67.93;101573.88;5030981;28;20144;-88
2023/09/25 04:23:28;;;;;;;0.10;0.10;;;;;;;21.91;66.65;101574.31;5016173;28;20487;-87
2023/09/25 04:26:00;;;;;;;0.10;0.10;;;;;;;21.75;66.25;101566.84;5038824;28;20527;-88
2023/09/25 04:28:29;;;;;;;0.10;0.10;;;;;;;21.76;66.77;101586.13;5046901;28;20498;-91
2023/09/25 04:30:57;;;;;;;0.10;0.10;;;;;;;21.65;68.11;101586.16;5021387;28;20037;-93
2023/09/25 04:33:24;;;;;;;0.10;0.10;;;;;;;21.55;67.42;101588.69;5015623;28;20032;-89
2023/09/25 04:35:52;;;;;;;0.20;0.20;;;;;;;21.54;67.80;101599.34;5032190;28;20067;-90
2023/09/25 04:38:18;;;;;;;0.20;0.20;;;;;;;21.39;68.09;101591.69;5029835;28;20131;-88
2023/09/25 04:40:46;;;;;;;0.20;0.20;;;;;;;21.42;67.88;101604.59;5015164;28;20037;-88
2023/09/25 04:43:12;;;;;;;0.10;0.10;;;;;;;21.34;68.88;101588.59;5032011;28;20024;-88
2023/09/25 04:45:38;;;;;;;0.10;0.10;;;;;;;21.62;68.78;101608.28;5030828;28;20032;-89
2023/09/25 04:48:03;;;;;;;0.20;0.20;;;;;;;21.92;66.97;101604.97;5029635;28;20036;-88
2023/09/25 04:50:29;;;;;;;0.10;0.10;;;;;;;22.03;66.39;101599.69;5047627;28;20139;-92
2023/09/25 04:52:58;;;;;;;0.10;0.10;;;;;;;21.86;66.35;101600.22;5015769;28;20103;-94
2023/09/25 04:55:23;;;;;;;0.10;0.10;;;;;;;21.85;67.00;101613.50;5004678;28;20106;-92
2023/09/25 04:57:49;;;;;;;0.20;0.20;;;;;;;21.71;67.26;101614.59;5022159;28;20566;-91
2023/09/25 05:00:21;;;;;;;0.10;0.10;;;;;;;21.67;67.58;101621.94;5036325;28;20064;-91
2023/09/25 05:02:47;;;;;;;0.10;0.10;;;;;;;21.57;67.92;101631.53;5039384;28;20495;-92
2023/09/25 05:05:17;;;;;;;0.13;0.13;;;;;;;21.41;67.81;101612.63;5015197;28;20477;-89
2023/09/25 05:07:43;;;;;;;0.20;0.20;;;;;;;21.48;69.79;101627.81;5051645;28;20090;-92
2023/09/25 05:10:10;;;;;;;0.10;0.10;;;;;;;21.35;68.99;101621.84;5018512;28;20032;-90
2023/09/25 05:12:37;;;;;;;0.10;0.10;;;;;;;21.37;69.25;101627.00;5036373;28;20037;-89
2023/09/25 05:15:03;;;;;;;0.20;0.20;;;;;;;21.32;69.35;101632.59;5020719;28;20028;-90
2023/09/25 05:17:29;;;;;;;0.10;0.10;;;;;;;21.30;69.59;101637.16;5050109;28;20052;-90
2023/09/25 05:19:54;;;;;;;0.20;0.20;;;;;;;21.24;72.16;101640.25;5040497;28;20418;-94
2023/09/25 05:22:19;;;;;;;0.10;0.10;;;;;;;21.37;71.40;101646.25;5037351;28;20033;-90
2023/09/25 05:24:45;;;;;;;0.20;0.20;;;;;;;21.77;69.61;101653.63;5025863;28;20056;-92
2023/09/25 05:27:11;;;;;;;0.15;0.15;;;;;;;21.84;70.23;101644.28;5024626;28;20025;-88
2023/09/25 05:29:36;;;;;;;0.20;0.20;;;;;;;22.07;68.06;101650.34;5035793;28;20068;-89
2023/09/25 05:32:04;;;;;;;0.10;0.10;;;;;;;22.07;67.63;101654.78;5053208;28;20025;-88
2023/09/25 05:34:30;;;;;;;0.10;0.10;;;;;;;22.21;68.41;101662.41;5042874;28;20028;-90
2023/09/25 05:36:56;;;;;;;0.10;0.10;;;;;;;22.34;67.21;101671.00;5034425;28;20040;-92
2023/09/25 05:39:24;;;;;;;0.10;0.10;;;;;;;22.42;67.60;101675.63;5018907;28;20028;-88
2023/09/25 05:41:50;;;;;;;0.20;0.20;;;;;;;22.23;67.75;101674.50;5019839;28;20048;-90
2023/09/25 05:44:16;;;;;;;0.10;0.10;;;;;;;22.19;68.32;101672.22;5034489;28;20036;-89
2023/09/25 05:46:41;;;;;;;0.17;0.17;;;;;;;22.12;68.14;101673.69;5037112;28;20029;-92
2023/09/25 05:49:07;;;;;;;0.10;0.10;;;;;;;21.97;68.76;101679.22;5034023;28;20033;-88
2023/09/25 05:51:33;;;;;;;0.10;0.10;;;;;;;21.98;69.09;101678.25;5019001;28;20406;-89
2023/09/25 05:53:59;;;;;;;0.20;0.20;;;;;;;21.84;69.38;101675.06;5034123;28;20035;-89
2023/09/25 05:56:25;;;;;;;0.10;0.10;;;;;;;21.75;70.45;101681.91;5047644;28;20053;-91
2023/09/25 05:58:52;;;;;;;0.10;0.10;;;;;;;21.65;71.01;101686.22;5024091;28;20028;-91
2023/09/25 06:01:18;;;;;;;0.10;0.10;;;;;;;21.74;71.14;101682.84;5019855;28;20028;-88
2023/09/25 06:03:43;;;;;;;0.10;0.10;;;;;;;21.67;71.91;101689.56;5053108;28;20032;-91
2023/09/25 06:06:09;;;;;;;0.10;0.10;;;;;;;21.69;72.05;101688.47;5015582;28;20172;-92
2023/09/25 06:08:34;;;;;;;0.10;0.10;;;;;;;21.40;73.51;101655.69;5029984;28;20025;-90
2023/09/25 06:11:03;;;;;;;0.15;0.15;;;;;;;21.76;72.86;101689.66;5054660;28;20440;-92
2023/09/25 06:13:30;;;;;;;0.20;0.20;;;;;;;21.70;73.58;101694.56;5040527;28;20049;-92
2023/09/25 06:15:57;;;;;;;0.15;0.15;;;;;;;21.72;73.38;101692.66;5054714;28;20025;-90
2023/09/25 06:18:22;;;;;;;0.10;0.10;;;;;;;21.71;73.17;101689.19;5045199;28;20096;-91
2023/09/25 06:20:48;;;;;;;0.20;0.20;;;;;;;21.78;72.93;101689.53;5034367;28;20021;-90
2023/09/25 06:23:15;;;;;;;0.20;0.20;;;;;;;21.79;73.51;101685.94;5033874;28;20025;-85
2023/09/25 06:25:42;;;;;;;0.10;0.10;;;;;;;21.88;72.55;101687.84;5042774;28;20037;-90
2023/09/25 06:28:08;;;;;;;0.10;0.10;;;;;;;22.00;72.79;101700.03;5035226;28;20536;-88
2023/09/25 06:30:34;;;;;;;0.10;0.10;;;;;;;22.05;72.11;101700.53;5034632;28;20043;-89
2023/09/25 06:33:00;;;;;;;0.10;0.10;;;;;;;22.03;72.08;101693.72;5032798;28;20033;-92
2023/09/25 06:35:26;;;;;;;0.20;0.20;;;;;;;22.14;71.15;101708.69;5040557;28;20039;-93
2023/09/25 06:37:51;;;;;;;0.20;0.20;;;;;;;22.20;71.25;101703.72;5020275;28;20025;-92
2023/09/25 06:40:19;;;;;;;0.10;0.10;;;;;;;22.26;71.00;101712.97;5049773;28;20036;-92
2023/09/25 06:42:44;;;;;;;0.20;0.20;;;;;;;22.30;69.55;101719.66;5020468;28;20049;-91
2023/09/25 06:45:10;;;;;;;0.20;0.20;;;;;;;22.11;70.02;101708.91;5034331;28;20108;-93
2023/09/25 06:47:36;;;;;;;0.10;0.10;;;;;;;22.18;69.97;101710.09;5036778;28;20606;-93
2023/09/25 06:50:02;;;;;;;0.20;0.20;;;;;;;22.11;70.28;101703.63;5045851;28;20079;-92
2023/09/25 06:52:28;;;;;;;0.10;0.10;;;;;;;22.16;69.92;101714.66;5021355;28;20037;-92
2023/09/25 06:54:54;;;;;;;0.10;0.10;;;;;;;22.19;70.22;101722.31;5034950;28;20033;-93
2023/09/25 06:57:20;;;;;;;0.10;0.10;;;;;;;22.09;69.77;101710.84;5023980;28;20048;-91
2023/09/25 06:59:45;;;;;;;0.20;0.20;;;;;;;22.11;69.69;101714.19;5052290;28;20032;-87
2023/09/25 07:02:11;;;;;;;0.10;0.10;;;;;;;22.10;69.78;101717.78;5050368;28;20028;-91
2023/09/25 07:04:37;;;;;;;0.10;0.10;;;;;;;22.16;70.38;101719.94;5033316;28;20025;-89
2023/09/25 07:07:03;;;;;;;0.10;0.10;;;;;;;22.25;70.19;101729.75;5048613;28;20143;-85
2023/09/25 07:09:28;;;;;;;0.10;0.10;;;;;;;22.36;69.50;101732.34;5050411;28;20144;-87
2023/09/25 07:11:54;;;;;;;0.10;0.10;;;;;;;22.41;69.72;101732.78;5013155;28;20487;-88
2023/09/25 07:14:21;;;;;;;0.20;0.20;;;;;;;22.47;69.09;101727.03;5033274;28;20083;-87
2023/09/25 07:16:47;;;;;;;0.20;0.20;;;;;;;22.45;68.96;101739.50;5016611;28;20540;-86
2023/09/25 07:19:12;;;;;;;0.20;0.20;;;;;;;22.41;69.00;101721.41;5050624;28;20024;-88
2023/09/25 07:21:38;;;;;;;0.20;0.20;;;;;;;22.44;68.15;101729.91;5033033;28;20017;-88
2023/09/25 07:24:07;;;;;;;0.10;0.10;;;;;;;22.43;68.68;101745.88;5033173;28;20037;-90
2023/09/25 07:26:33;;;;;;;0.20;0.20;;;;;;;22.46;68.96;101733.25;5008408;28;20487;-92
2023/09/25 07:28:58;;;;;;;0.15;0.15;;;;;;;22.53;68.85;101752.91;5012598;28;20136;-86
2023/09/25 07:31:24;;;;;;;0.10;0.10;;;;;;;22.58;68.17;101750.72;5050577;28;20502;-87
2023/09/25 07:33:50;;;;;;;0.10;0.10;;;;;;;22.65;68.44;101750.22;5025136;28;20029;-91
2023/09/25 07:36:19;;;;;;;0.10;0.10;;;;;;;22.72;68.10;101735.56;5016818;28;20071;-90
2023/09/25 07:38:49;;;;;;;0.10;0.10;;;;;;;22.84;67.39;101750.41;5021915;28;20036;-93
2023/09/25 07:41:14;;;;;;;0.10;0.10;;;;;;;22.87;66.49;101744.88;5036214;28;20049;-86
2023/09/25 07:43:40;;;;;;;0.20;0.20;;;;;;;22.89;65.99;101758.75;5048798;28;20131;-93
2023/09/25 07:46:06;;;;;;;0.10;0.10;;;;;;;22.90;66.36;101744.59;5030199;28;20022;-90
2023/09/25 07:48:32;;;;;;;0.20;0.20;;;;;;;23.00;65.88;101748.16;5055981;28;20033;-85
2023/09/25 07:50:58;;;;;;;0.10;0.10;;;;;;;23.05;65.57;101753.88;5030686;28;20123;-90
2023/09/25 07:53:24;;;;;;;0.10;0.10;;;;;;;23.07;65.13;101749.31;5055726;28;20028;-94
2023/09/25 07:55:53;;;;;;;0.20;0.20;;;;;;;23.10;64.84;101740.28;5013434;28;20040;-88
2023/09/25 07:58:18;;;;;;;0.20;0.20;;;;;;;23.26;64.36;101745.97;5052569;28;20415;-94
2023/09/25 08:00:45;;;;;;;0.13;0.13;;;;;;;23.39;63.86;101751.03;5015105;28;20032;-90
2023/09/25 08:03:15;;;;;;;0.13;0.13;;;;;;;23.36;63.95;101751.28;5030788;28;20024;-90
2023/09/25 08:05:41;;;;;;;0.20;0.20;;;;;;;23.32;63.15;101748.09;5035782;28;20506;-93
2023/09/25 08:08:06;;;;;;;0.20;0.20;;;;;;;23.29;63.58;101747.50;5020188;28;20043;-91
2023/09/25 08:10:33;;;;;;;0.20;0.20;;;;;;;23.39;64.01;101751.03;5032434;28;20025;-91
2023/09/25 08:13:00;;;;;;;0.10;0.10;;;;;;;23.40;63.42;101761.47;5035961;28;20060;-92
2023/09/25 08:15:27;;;;;;;0.10;0.10;;;;;;;23.40;63.97;101753.56;5034983;28;20135;-91
2023/09/25 08:17:52;;;;;;;0.20;0.20;;;;;;;23.44;63.77;101752.31;5013850;28;20029;-95
2023/09/25 08:20:20;;;;;;;0.13;0.13;;;;;;;23.45;63.79;101751.34;5033494;28;20079;-90
2023/09/25 08:22:46;;;;;;;0.20;0.20;;;;;;;23.53;63.41;101755.97;5020869;28;20068;-91
2023/09/25 08:25:12;;;;;;;0.10;0.10;;;;;;;23.56;63.01;101746.94;5018163;28;20040;-89
2023/09/25 08:27:38;;;;;;;0.10;0.10;;;;;;;23.36;62.72;101719.59;5036938;28;20060;-87
2023/09/25 08:30:05;;;;;;;0.20;0.20;;;;;;;23.47;62.47;101732.72;5032325;28;20116;-87
2023/09/25 08:32:31;;;;;;;0.20;0.20;;;;;;;23.43;62.56;101718.13;5030110;28;20095;-87
2023/09/25 08:35:00;;;;;;;0.20;0.20;;;;;;;23.55;61.65;101735.53;5014139;28;20028;-89
2023/09/25 08:37:25;;;;;;;0.10;0.10;;;;;;;23.48;60.51;101732.59;5030880;28;20029;-87
2023/09/25 08:39:52;;;;;;;0.17;0.17;;;;;;;23.68;60.22;101754.66;5046229;28;20143;-92
2023/09/25 08:42:20;;;;;;;0.20;0.20;;;;;;;23.51;60.70;101722.75;5016384;28;20418;-88
2023/09/25 08:44:46;;;;;;;0.20;0.20;;;;;;;23.62;59.80;101746.47;5035425;28;20032;-93
2023/09/25 08:47:11;;;;;;;0.10;0.10;;;;;;;23.67;60.27;101742.44;5050858;28;20055;-88
2023/09/25 08:49:37;;;;;;;0.20;0.20;;;;;;;23.74;60.19;101754.16;5034046;28;20529;-91
2023/09/25 08:52:02;;;;;;;0.20;0.20;;;;;;;23.83;59.82;101764.91;5033645;28;20040;-90
2023/09/25 08:54:28;;;;;;;0.20;0.20;;;;;;;23.91;59.36;101751.84;5017506;28;20129;-92
2023/09/25 08:56:53;;;;;;;0.20;0.20;;;;;;;23.97;59.38;101744.19;5068561;28;20398;-90
2023/09/25 08:59:19;;;;;;;0.20;0.20;;;;;;;24.04;58.86;101739.22;5015580;28;20051;-90
2023/09/25 09:01:44;;;;;;;0.10;0.10;;;;;;;24.13;57.70;101751.63;5034294;28;20482;-91
2023/09/25 09:04:10;;;;;;;0.20;0.20;;;;;;;24.10;58.44;101751.91;5034570;28;20060;-90
2023/09/25 09:06:37;;;;;;;0.10;0.10;;;;;;;24.29;57.56;101745.81;5015313;28;20083;-94
2023/09/25 09:09:02;;;;;;;0.10;0.10;;;;;;;24.31;58.02;101747.38;5020793;28;20114;-92
2023/09/25 09:11:28;;;;;;;0.20;0.20;;;;;;;24.20;57.01;101721.03;5051998;28;20025;-88
2023/09/25 09:13:54;;;;;;;0.10;0.10;;;;;;;24.41;57.03;101754.50;5054169;28;20040;-89
2023/09/25 09:16:19;;;;;;;0.20;0.20;;;;;;;24.41;56.29;101742.09;5018244;28;20051;-89
2023/09/25 09:18:48;;;;;;;0.17;0.17;;;;;;;24.47;56.34;101759.22;5033554;28;20469;-93
2023/09/25 09:21:44;;;;;;;0.20;0.20;;;;;;;24.52;56.33;101752.56;5017592;28;20107;-90
2023/09/25 09:24:32;;;;;;;0.20;0.20;;;;;;;24.59;56.73;101743.09;5024452;28;20057;-94
2023/09/25 09:26:57;;;;;;;0.20;0.20;;;;;;;24.81;56.05;101751.72;5001948;28;20423;-86
2023/09/25 09:29:23;;;;;;;0.10;0.10;;;;;;;24.75;56.08;101750.44;5044756;28;20028;-91
2023/09/25 09:31:55;;;;;;;0.20;0.20;;;;;;;24.77;54.42;101753.78;5013285;28;20025;-92
2023/09/25 09:34:24;;;;;;;0.20;0.20;;;;;;;24.76;55.41;101749.47;5031559;28;20024;-91
2023/09/25 09:36:53;;;;;;;0.13;0.13;;;;;;;24.86;55.09;101749.47;5032859;28;20107;-90
2023/09/25 09:39:21;;;;;;;0.20;0.20;;;;;;;25.00;54.16;101751.69;5030410;28;20032;-90
2023/09/25 09:41:48;;;;;;;0.20;0.20;;;;;;;25.02;54.60;101751.59;5031419;28;20040;-86
2023/09/25 09:44:14;;;;;;;0.20;0.20;;;;;;;24.98;54.66;101745.72;5031294;28;20033;-88
2023/09/25 09:46:41;;;;;;;0.20;0.20;;;;;;;25.10;54.70;101762.31;5030924;28;20029;-91
2023/09/25 09:49:08;;;;;;;0.20;0.20;;;;;;;25.19;54.35;101758.81;5030104;28;20467;-87
2023/09/25 09:51:34;;;;;;;0.20;0.20;;;;;;;25.17;54.26;101763.38;5033162;28;20033;-92
2023/09/25 09:54:00;;;;;;;0.15;0.15;;;;;;;25.11;54.34;101734.84;5016680;28;20071;-91
2023/09/25 09:56:27;;;;;;;0.10;0.10;;;;;;;25.30;54.25;101750.69;5034826;28;20053;-89
2023/09/25 09:58:52;;;;;;;0.20;0.20;;;;;;;25.24;53.62;101759.19;5056779;28;20051;-91
2023/09/25 10:01:18;;;;;;;0.20;0.20;;;;;;;25.12;53.76;101725.91;5021944;28;20020;-94
2023/09/25 10:03:43;;;;;;;0.10;0.10;;;;;;;25.22;53.81;101739.97;5019883;28;20033;-91
2023/09/25 10:06:11;;;;;;;0.20;0.20;;;;;;;25.28;54.01;101735.94;5035003;28;20053;-93
2023/09/25 10:08:36;;;;;;;0.20;0.20;;;;;;;25.35;54.00;101748.44;5052696;28;20032;-88
2023/09/25 10:11:23;;;;;;;0.20;0.20;;;;;;;25.43;52.73;101742.41;5033540;28;20481;-89
2023/09/25 10:13:48;;;;;;;0.20;0.20;;;;;;;25.43;53.86;101737.94;5007296;28;20389;-88
2023/09/25 10:16:15;;;;;;;0.20;0.20;;;;;;;25.54;52.86;101736.09;5038920;28;20060;-88
2023/09/25 10:18:41;;;;;;;0.10;0.10;;;;;;;25.63;52.72;101729.94;5022419;28;20017;-89
2023/09/25 10:21:11;;;;;;;0.10;0.10;;;;;;;25.70;52.38;101741.66;5035665;28;20036;-92
2023/09/25 10:23:41;;;;;;;0.10;0.10;;;;;;;25.78;52.36;101735.63;5036185;28;20094;-92
2023/09/25 10:26:24;;;;;;;0.20;0.20;;;;;;;25.75;51.89;101728.78;5022197;28;20041;-91
2023/09/25 10:29:14;;;;;;;0.13;0.13;;;;;;;25.77;52.09;101740.09;5022225;28;20061;-94
2023/09/25 10:31:47;;;;;;;0.10;0.10;;;;;;;25.84;52.10;101725.25;5032853;28;20052;-87
2023/09/25 10:34:13;;;;;;;0.20;0.20;;;;;;;25.98;52.54;101727.41;5035579;28;20025;-90
2023/09/25 10:36:41;;;;;;;0.20;0.20;;;;;;;26.17;51.12;101726.47;5034663;28;20116;-84
2023/09/25 10:39:13;;;;;;;0.10;0.10;;;;;;;26.28;52.08;101728.06;5034389;28;20115;-89
2023/09/25 10:41:39;;;;;;;0.20;0.20;;;;;;;26.46;51.81;101730.75;5019845;28;20411;-91
2023/09/25 10:44:05;;;;;;;0.20;0.20;;;;;;;26.27;52.01;101706.00;5034262;28;20036;-88
2023/09/25 10:46:31;;;;;;;0.20;0.20;;;;;;;26.46;50.40;101715.66;5033204;28;20414;-88
2023/09/25 10:48:57;;;;;;;0.20;0.20;;;;;;;26.49;50.15;101698.59;5048177;28;20514;-93
2023/09/25 10:51:22;;;;;;;0.20;0.20;;;;;;;26.68;50.74;101713.50;5042265;28;20348;-94
2023/09/25 10:53:48;;;;;;;0.10;0.10;;;;;;;26.75;49.10;101722.53;5039877;28;20070;-93
2023/09/25 10:56:15;;;;;;;0.20;0.20;;;;;;;26.69;49.21;101707.22;5054002;28;20112;-89
2023/09/25 10:58:41;;;;;;;0.20;0.20;;;;;;;26.78;49.47;101720.41;5034316;28;20037;-92
2023/09/25 11:01:07;;;;;;;0.20;0.20;;;;;;;26.78;50.74;101711.59;5017007;28;20044;-89
2023/09/25 11:03:32;;;;;;;0.20;0.20;;;;;;;26.74;49.82;101697.78;5019467;28;20094;-92
2023/09/25 11:05:58;;;;;;;0.20;0.20;;;;;;;26.90;48.56;101726.28;5035887;28;20570;-91
2023/09/25 11:08:25;;;;;;;0.20;0.20;;;;;;;26.75;49.07;101709.28;5036226;28;20044;-92
2023/09/25 11:10:50;;;;;;;0.10;0.10;;;;;;;26.68;48.40;101710.88;5034900;28;20037;-90
2023/09/25 11:13:16;;;;;;;0.20;0.20;;;;;;;26.71;48.89;101710.53;5053255;28;20032;-92
2023/09/25 11:15:41;;;;;;;0.20;0.20;;;;;;;26.72;48.69;101709.56;5054569;28;20040;-91
2023/09/25 11:18:10;;;;;;;0.13;0.13;;;;;;;26.64;48.50;101702.34;5037146;28;20028;-92
2023/09/25 11:20:37;;;;;;;0.20;0.20;;;;;;;26.58;49.06;101690.56;5032931;28;20052;-89